createdAt,value
2018-01-13T00:00:14.531Z,86.73
2018-01-13T00:02:42.147Z,82.47
2018-01-13T00:05:09.750Z,72.50
2018-01-13T00:07:37.335Z,75.30
2018-01-13T00:10:04.946Z,80.33
2018-01-13T00:12:33.411Z,72.77
2018-01-13T00:15:00.995Z,78.27
2018-01-13T00:17:29.451Z,89.00
2018-01-13T00:19:57.106Z,72.23
2018-01-13T00:22:24.784Z,85.13
2018-01-13T00:24:52.439Z,69.37
2018-01-13T00:27:20.047Z,83.57
2018-01-13T00:29:47.631Z,92.50
2018-01-13T00:32:15.239Z,86.30
2018-01-13T00:34:43.590Z,85.13
2018-01-13T00:37:11.199Z,104.30
2018-01-13T00:39:39.555Z,84.70
2018-01-13T00:42:07.163Z,86.43
2018-01-13T00:44:34.750Z,101.33
2018-01-13T00:47:02.430Z,98.23
2018-01-13T00:49:30.008Z,99.00
2018-01-13T00:51:58.450Z,83.53
2018-01-13T00:54:26.047Z,82.83
2018-01-13T00:56:54.407Z,86.77
2018-01-13T00:59:22.014Z,103.17
2018-01-13T01:01:49.603Z,78.90
2018-01-13T01:04:17.214Z,93.63
2018-01-13T01:06:45.567Z,102.80
2018-01-13T01:09:13.174Z,88.70
2018-01-13T01:11:40.794Z,99.13
2018-01-13T01:14:08.403Z,87.77
2018-01-13T01:16:36.002Z,117.00
2018-01-13T01:19:03.799Z,86.47
2018-01-13T01:21:31.450Z,91.30
2018-01-13T01:23:59.111Z,89.47
2018-01-13T01:26:26.690Z,93.73
2018-01-13T01:28:55.155Z,87.07
2018-01-13T01:31:22.819Z,90.43
2018-01-13T01:33:50.433Z,93.77
2018-01-13T01:36:18.015Z,85.23
2018-01-13T01:38:45.627Z,100.53
2018-01-13T01:41:13.978Z,98.77
2018-01-13T01:43:41.587Z,80.17
2018-01-13T01:46:09.207Z,88.23
2018-01-13T01:48:36.848Z,78.30
2018-01-13T01:51:04.535Z,86.37
2018-01-13T01:53:32.122Z,79.97
2018-01-13T01:56:00.498Z,88.07
2018-01-13T01:58:28.856Z,100.73
2018-01-13T02:00:56.474Z,77.17
2018-01-13T02:03:24.076Z,84.37
2018-01-13T02:05:51.683Z,72.13
2018-01-13T02:08:19.263Z,92.10
2018-01-13T02:10:46.871Z,70.27
2018-01-13T02:13:14.519Z,69.67
2018-01-13T02:15:42.122Z,75.03
2018-01-13T02:18:09.743Z,84.67
2018-01-13T02:20:37.400Z,83.30
2018-01-13T02:23:05.066Z,84.13
2018-01-13T02:25:34.175Z,89.33
2018-01-13T02:28:01.760Z,91.87
2018-01-13T02:30:30.207Z,94.07
2018-01-13T02:32:57.871Z,87.47
2018-01-13T02:35:25.453Z,93.30
2018-01-13T02:37:53.823Z,91.00
2018-01-13T02:40:21.407Z,85.03
2018-01-13T02:42:49.015Z,99.77
2018-01-13T02:45:16.695Z,86.47
2018-01-13T02:47:44.359Z,76.70
2018-01-13T02:50:11.952Z,79.00
2018-01-13T02:52:40.335Z,85.00
2018-01-13T02:55:07.963Z,83.07
2018-01-13T02:57:35.628Z,79.30
2018-01-13T03:00:03.225Z,76.93
2018-01-13T03:02:30.846Z,92.90
2018-01-13T03:04:58.503Z,82.70
2018-01-13T03:07:26.183Z,87.87
2018-01-13T03:09:53.839Z,54.83
2018-01-13T03:12:21.457Z,84.23
2018-01-13T03:14:49.042Z,79.47
2018-01-13T03:17:16.723Z,92.37
2018-01-13T03:19:44.388Z,78.37
2018-01-13T03:22:12.047Z,84.63
2018-01-13T03:24:39.710Z,85.63
2018-01-13T03:27:07.376Z,90.40
2018-01-13T03:29:34.983Z,86.03
2018-01-13T03:32:02.699Z,81.32
2018-01-13T03:34:31.100Z,68.82
2018-01-13T03:36:59.562Z,77.73
2018-01-13T03:39:27.227Z,73.43
2018-01-13T03:41:54.892Z,80.83
2018-01-13T03:44:22.546Z,82.83
2018-01-13T03:46:50.130Z,84.13
2018-01-13T03:49:18.600Z,86.47
2018-01-13T03:51:46.182Z,51.93
2018-01-13T03:54:14.567Z,90.80
2018-01-13T03:56:42.152Z,91.13
2018-01-13T03:59:09.772Z,88.57
2018-01-13T04:01:38.124Z,68.60
2018-01-13T04:04:05.730Z,83.70
2018-01-13T04:06:34.184Z,76.97
2018-01-13T04:09:01.774Z,72.30
2018-01-13T04:11:29.399Z,79.47
2018-01-13T04:13:57.064Z,66.60
2018-01-13T04:16:24.723Z,85.80
2018-01-13T04:18:52.434Z,70.77
2018-01-13T04:21:20.054Z,70.70
2018-01-13T04:23:47.649Z,80.67
2018-01-13T04:26:15.275Z,64.33
2018-01-13T04:28:42.920Z,51.27
2018-01-13T04:31:10.540Z,53.57
2018-01-13T04:33:38.127Z,60.67
2018-01-13T04:36:05.832Z,70.20
2018-01-13T04:38:33.487Z,64.00
2018-01-13T04:41:01.146Z,60.80
2018-01-13T04:43:29.536Z,66.70
2018-01-13T04:45:57.142Z,59.47
2018-01-13T04:48:24.724Z,79.40
2018-01-13T04:50:52.422Z,85.70
2018-01-13T04:53:20.040Z,71.87
2018-01-13T04:55:47.655Z,67.60
2018-01-13T04:58:16.128Z,60.43
2018-01-13T05:00:43.719Z,69.43
2018-01-13T05:03:11.323Z,64.77
2018-01-13T05:05:38.920Z,73.83
2018-01-13T05:08:07.392Z,71.47
2018-01-13T05:10:35.056Z,63.00
2018-01-13T05:13:02.711Z,56.60
2018-01-13T05:15:31.065Z,78.50
2018-01-13T05:17:58.684Z,71.83
2018-01-13T05:20:27.036Z,76.00
2018-01-13T05:22:54.655Z,44.70
2018-01-13T05:25:22.255Z,55.13
2018-01-13T05:27:50.630Z,64.47
2018-01-13T05:30:18.303Z,52.73
2018-01-13T05:32:45.958Z,65.40
2018-01-13T05:35:13.565Z,54.30
2018-01-13T05:37:41.182Z,61.77
2018-01-13T05:40:08.807Z,52.10
2018-01-13T05:42:36.406Z,61.70
2018-01-13T05:45:04.023Z,52.00
2018-01-13T05:47:31.635Z,52.93
2018-01-13T05:49:59.274Z,58.23
2018-01-13T05:52:26.955Z,70.73
2018-01-13T05:54:54.619Z,59.78
2018-01-13T05:57:23.008Z,59.40
2018-01-13T05:59:50.715Z,62.97
2018-01-13T06:02:18.287Z,49.77
2018-01-13T06:04:45.992Z,56.53
2018-01-13T06:07:13.656Z,58.38
2018-01-13T06:09:41.269Z,55.37
2018-01-13T06:12:08.975Z,63.80
2018-01-13T06:14:36.586Z,60.97
2018-01-13T06:17:04.171Z,54.67
2018-01-13T06:19:31.860Z,55.30
2018-01-13T06:21:59.523Z,53.43
2018-01-13T06:24:27.109Z,56.87
2018-01-13T06:26:55.479Z,55.93
2018-01-13T06:29:23.134Z,51.05
2018-01-13T06:31:51.616Z,49.70
2018-01-13T06:34:19.202Z,41.27
2018-01-13T06:36:46.940Z,56.13
2018-01-13T06:39:14.641Z,58.20
2018-01-13T06:41:43.008Z,66.27
2018-01-13T06:44:10.632Z,57.35
2018-01-13T06:46:38.243Z,58.77
2018-01-13T06:49:05.860Z,52.83
2018-01-13T06:51:33.535Z,58.57
2018-01-13T06:54:02.011Z,38.33
2018-01-13T06:56:29.618Z,52.77
2018-01-13T06:58:57.211Z,54.00
2018-01-13T07:01:24.807Z,52.07
2018-01-13T07:03:53.270Z,55.90
2018-01-13T07:06:20.859Z,44.47
2018-01-13T07:08:49.324Z,51.90
2018-01-13T07:11:16.910Z,53.80
2018-01-13T07:13:45.364Z,51.73
2018-01-13T07:16:12.959Z,53.63
2018-01-13T07:18:40.567Z,44.13
2018-01-13T07:21:08.160Z,46.27
2018-01-13T07:23:36.623Z,46.73
2018-01-13T07:26:04.287Z,53.80
2018-01-13T07:28:31.955Z,59.27
2018-01-13T07:30:59.552Z,45.57
2018-01-13T07:33:27.283Z,43.67
2018-01-13T07:35:54.934Z,45.67
2018-01-13T07:38:23.288Z,49.00
2018-01-13T07:40:50.896Z,46.40
2018-01-13T07:43:19.368Z,43.47
2018-01-13T07:45:46.984Z,45.27
2018-01-13T07:48:14.576Z,47.47
2018-01-13T07:50:42.243Z,49.70
2018-01-13T07:53:09.862Z,52.30
2018-01-13T07:55:37.471Z,39.17
2018-01-13T07:58:05.131Z,42.17
2018-01-13T08:00:32.738Z,42.90
2018-01-13T08:03:00.359Z,56.67
2018-01-13T08:05:28.734Z,43.47
2018-01-13T08:07:56.400Z,42.60
2018-01-13T08:10:24.059Z,38.40
2018-01-13T08:12:52.414Z,43.73
2018-01-13T08:15:20.113Z,41.47
2018-01-13T08:17:47.764Z,40.27
2018-01-13T08:20:15.429Z,38.93
2018-01-13T08:22:43.039Z,33.90
2018-01-13T08:25:10.652Z,37.30
2018-01-13T08:27:38.324Z,30.97
2018-01-13T08:30:05.907Z,42.77
2018-01-13T08:32:33.528Z,39.87
2018-01-13T08:35:01.211Z,27.03
2018-01-13T08:37:28.871Z,27.27
2018-01-13T08:39:57.226Z,39.63
2018-01-13T08:42:24.838Z,36.07
2018-01-13T08:44:53.289Z,34.07
2018-01-13T08:47:21.724Z,32.27
2018-01-13T08:49:49.336Z,39.30
2018-01-13T08:52:17.041Z,28.20
2018-01-13T08:54:44.612Z,34.47
2018-01-13T08:57:12.315Z,32.20
2018-01-13T08:59:39.911Z,25.93
2018-01-13T09:02:08.283Z,32.40
2018-01-13T09:04:36.631Z,28.03
2018-01-13T09:07:04.299Z,17.57
2018-01-13T09:09:31.959Z,22.70
2018-01-13T09:11:59.547Z,26.87
2018-01-13T09:14:27.928Z,26.67
2018-01-13T09:16:56.392Z,17.50
2018-01-13T09:19:24.047Z,13.63
2018-01-13T09:21:52.399Z,18.67
2018-01-13T09:24:20.012Z,20.00
2018-01-13T09:26:48.368Z,20.33
2018-01-13T09:29:16.748Z,19.63
2018-01-13T09:31:44.333Z,20.23
2018-01-13T09:34:12.787Z,16.90
2018-01-13T09:36:40.380Z,19.33
2018-01-13T09:39:08.768Z,13.67
2018-01-13T09:41:36.400Z,17.93
2018-01-13T09:44:04.055Z,16.80
2018-01-13T09:46:31.738Z,16.00
2018-01-13T09:49:00.108Z,13.77
2018-01-13T09:51:27.759Z,14.10
2018-01-13T09:53:55.353Z,12.50
2018-01-13T09:56:23.808Z,13.10
2018-01-13T09:58:51.733Z,12.27
2018-01-13T10:01:19.440Z,17.83
2018-01-13T10:03:47.104Z,13.13
2018-01-13T10:06:14.763Z,12.83
2018-01-13T10:08:42.423Z,11.93
2018-01-13T10:11:10.036Z,14.10
2018-01-13T10:13:37.652Z,12.43
2018-01-13T10:16:05.259Z,11.80
2018-01-13T10:18:32.852Z,11.87
2018-01-13T10:21:00.462Z,16.80
2018-01-13T10:23:28.819Z,14.50
2018-01-13T10:25:56.477Z,12.10
2018-01-13T10:28:24.136Z,12.70
2018-01-13T10:30:51.737Z,14.13
2018-01-13T10:33:19.359Z,13.00
2018-01-13T10:35:47.023Z,12.90
2018-01-13T10:38:14.637Z,17.23
2018-01-13T10:40:42.247Z,9.10
2018-01-13T10:43:09.851Z,13.37
2018-01-13T10:45:37.439Z,12.30
2018-01-13T10:48:05.127Z,10.13
2018-01-13T10:50:34.124Z,11.90
2018-01-13T10:53:01.787Z,9.40
2018-01-13T10:55:29.362Z,9.60
2018-01-13T10:57:56.968Z,8.47
2018-01-13T11:00:24.580Z,13.93
2018-01-13T11:02:52.300Z,8.87
2018-01-13T11:05:19.912Z,6.73
2018-01-13T11:07:48.275Z,9.73
2018-01-13T11:10:15.884Z,8.47
2018-01-13T11:12:43.462Z,8.27
2018-01-13T11:15:11.824Z,7.13
2018-01-13T11:17:39.406Z,6.17
2018-01-13T11:20:07.015Z,7.53
2018-01-13T11:22:34.659Z,7.77
2018-01-13T11:25:03.060Z,5.97
2018-01-13T11:27:31.412Z,5.37
2018-01-13T11:29:59.087Z,9.13
2018-01-13T11:32:26.671Z,5.60
2018-01-13T11:34:55.125Z,5.03
2018-01-13T11:37:22.792Z,6.43
2018-01-13T11:39:50.446Z,8.37
2018-01-13T11:42:18.032Z,4.97
2018-01-13T11:44:46.379Z,7.67
2018-01-13T11:47:14.055Z,7.87
2018-01-13T11:49:41.632Z,7.77
2018-01-13T11:52:10.008Z,6.97
2018-01-13T11:54:37.591Z,9.07
2018-01-13T11:57:05.972Z,10.10
2018-01-13T11:59:33.610Z,7.62
2018-01-13T12:02:01.267Z,10.70
2018-01-13T12:04:28.846Z,10.00
2018-01-13T12:06:57.221Z,8.63
2018-01-13T12:09:25.687Z,9.10
2018-01-13T12:11:53.347Z,13.00
2018-01-13T12:14:21.011Z,12.47
2018-01-13T12:16:48.629Z,6.77
2018-01-13T12:19:16.240Z,11.07
2018-01-13T12:21:43.885Z,13.18
2018-01-13T12:24:11.467Z,10.87
2018-01-13T12:26:39.071Z,9.17
2018-01-13T12:29:06.688Z,13.30
2018-01-13T12:31:34.343Z,11.57
2018-01-13T12:34:02.827Z,12.05
2018-01-13T12:36:30.412Z,8.43
2018-01-13T12:38:58.873Z,12.30
2018-01-13T12:41:27.357Z,13.43
2018-01-13T12:43:55.823Z,8.13
2018-01-13T12:46:24.220Z,12.48
2018-01-13T12:48:51.847Z,9.88
2018-01-13T12:51:19.535Z,10.93
2018-01-13T12:53:47.931Z,15.77
2018-01-13T12:56:15.543Z,10.93
2018-01-13T12:58:43.176Z,14.60
2018-01-13T13:01:10.768Z,15.13
2018-01-13T13:03:38.384Z,12.17
2018-01-13T13:06:06.030Z,10.85
2018-01-13T13:08:33.696Z,12.47
2018-01-13T13:11:01.307Z,14.05
2018-01-13T13:13:29.020Z,10.90
2018-01-13T13:15:56.671Z,9.80
2018-01-13T13:18:24.339Z,9.53
2018-01-13T13:20:52.715Z,13.62
2018-01-13T13:23:20.388Z,15.43
2018-01-13T13:25:48.055Z,13.07
2018-01-13T13:28:15.648Z,20.60
2018-01-13T13:30:43.255Z,14.43
2018-01-13T13:33:10.937Z,12.20
2018-01-13T13:35:38.550Z,15.63
2018-01-13T13:38:06.173Z,14.40
2018-01-13T13:40:34.556Z,15.83
2018-01-13T13:43:02.920Z,16.43
2018-01-13T13:45:31.310Z,14.75
2018-01-13T13:47:58.923Z,11.85
2018-01-13T13:50:26.624Z,16.17
2018-01-13T13:52:54.216Z,15.93
2018-01-13T13:55:21.832Z,23.97
2018-01-13T13:57:49.424Z,18.33
2018-01-13T14:00:17.883Z,18.50
2018-01-13T14:02:45.468Z,19.93
2018-01-13T14:05:13.108Z,17.10
2018-01-13T14:07:41.806Z,14.75
2018-01-13T14:10:10.163Z,15.27
2018-01-13T14:12:38.575Z,15.80
2018-01-13T14:15:07.002Z,16.40
2018-01-13T14:17:34.695Z,21.23
2018-01-13T14:20:03.080Z,18.13
2018-01-13T14:22:30.748Z,22.43
2018-01-13T14:24:58.368Z,19.60
2018-01-13T14:27:26.071Z,21.20
2018-01-13T14:29:54.451Z,16.10
2018-01-13T14:32:22.064Z,16.67
2018-01-13T14:34:49.684Z,32.75
2018-01-13T14:37:18.059Z,19.77
2018-01-13T14:39:46.524Z,21.50
2018-01-13T14:42:14.201Z,23.20
2018-01-13T14:44:41.876Z,17.60
2018-01-13T14:47:09.624Z,18.33
2018-01-13T14:49:37.220Z,22.97
2018-01-13T14:52:04.947Z,23.30
2018-01-13T14:54:32.543Z,17.17
2018-01-13T14:57:00.275Z,24.17
2018-01-13T14:59:29.435Z,19.00
2018-01-13T15:01:57.024Z,15.43
2018-01-13T15:04:24.694Z,23.17
2018-01-13T15:06:52.287Z,21.70
2018-01-13T15:09:20.734Z,17.73
2018-01-13T15:11:49.115Z,15.02
2018-01-13T15:14:16.723Z,11.97
2018-01-13T15:16:44.336Z,14.82
2018-01-13T15:19:12.740Z,20.12
2018-01-13T15:21:41.208Z,18.20
2018-01-13T15:24:08.821Z,21.03
2018-01-13T15:26:36.435Z,20.37
2018-01-13T15:29:04.044Z,11.20
2018-01-13T15:31:31.655Z,15.10
2018-01-13T15:33:59.274Z,14.17
2018-01-13T15:36:27.665Z,18.77
2018-01-13T15:38:55.283Z,20.83
2018-01-13T15:41:23.634Z,38.43
2018-01-13T15:43:51.255Z,19.47
2018-01-13T15:46:18.954Z,11.93
2018-01-13T15:48:47.339Z,20.20
2018-01-13T15:51:14.999Z,19.37
2018-01-13T15:53:43.384Z,16.33
2018-01-13T15:56:11.047Z,14.80
2018-01-13T15:58:38.703Z,13.13
2018-01-13T16:01:06.376Z,19.30
2018-01-13T16:03:34.035Z,15.20
2018-01-13T16:06:01.650Z,15.30
2018-01-13T16:08:29.237Z,17.13
2018-01-13T16:10:56.924Z,22.53
2018-01-13T16:13:24.511Z,19.60
2018-01-13T16:15:52.123Z,18.20
2018-01-13T16:18:19.804Z,20.10
2018-01-13T16:20:47.477Z,18.37
2018-01-13T16:23:15.827Z,12.57
2018-01-13T16:25:43.516Z,14.70
2018-01-13T16:28:11.112Z,14.77
2018-01-13T16:30:38.719Z,17.57
2018-01-13T16:33:06.391Z,15.90
2018-01-13T16:35:33.995Z,14.87
2018-01-13T16:38:01.624Z,18.10
2018-01-13T16:40:29.279Z,17.67
2018-01-13T16:42:56.943Z,18.80
2018-01-13T16:45:24.603Z,14.23
2018-01-13T16:47:52.215Z,13.37
2018-01-13T16:50:19.827Z,14.77
2018-01-13T16:52:47.808Z,16.70
2018-01-13T16:55:15.378Z,11.57
2018-01-13T16:57:43.764Z,17.73
2018-01-13T17:00:12.119Z,15.57
2018-01-13T17:02:40.500Z,14.77
2018-01-13T17:05:09.600Z,13.73
2018-01-13T17:07:37.981Z,11.80
2018-01-13T17:10:05.579Z,15.67
2018-01-13T17:12:33.955Z,12.32
2018-01-13T17:15:01.571Z,11.40
2018-01-13T17:17:29.184Z,14.93
2018-01-13T17:19:56.767Z,18.43
2018-01-13T17:22:24.380Z,21.90
2018-01-13T17:24:52.727Z,9.80
2018-01-13T17:27:20.314Z,13.43
2018-01-13T17:29:47.968Z,13.90
2018-01-13T17:32:15.632Z,13.83
2018-01-13T17:34:43.246Z,13.87
2018-01-13T17:37:10.951Z,14.87
2018-01-13T17:39:38.616Z,16.10
2018-01-13T17:42:06.279Z,18.93
2018-01-13T17:44:33.886Z,11.60
2018-01-13T17:47:01.472Z,17.97
2018-01-13T17:49:29.169Z,22.40
2018-01-13T17:51:56.761Z,12.73
2018-01-13T17:54:24.487Z,19.60
2018-01-13T17:56:52.151Z,17.00
2018-01-13T17:59:19.815Z,13.43
2018-01-13T18:01:47.400Z,16.37
2018-01-13T18:04:15.780Z,17.00
2018-01-13T18:06:44.135Z,18.93
2018-01-13T18:09:11.718Z,19.40
2018-01-13T18:11:40.175Z,17.60
2018-01-13T18:14:09.284Z,20.30
2018-01-13T18:16:36.897Z,16.20
2018-01-13T18:19:04.614Z,18.20
2018-01-13T18:21:33.083Z,15.30
2018-01-13T18:24:00.743Z,19.00
2018-01-13T18:26:28.407Z,13.80
2018-01-13T18:28:55.999Z,18.00
2018-01-13T18:31:24.456Z,17.67
2018-01-13T18:33:52.111Z,13.13
2018-01-13T18:36:19.724Z,21.17
2018-01-13T18:38:47.339Z,17.83
2018-01-13T18:41:14.943Z,16.30
2018-01-13T18:43:42.530Z,16.30
2018-01-13T18:46:10.142Z,16.20
2018-01-13T18:48:38.601Z,18.17
2018-01-13T18:51:06.224Z,19.40
2018-01-13T18:53:33.815Z,20.40
2018-01-13T18:56:01.492Z,20.03
2018-01-13T18:58:29.079Z,29.53
2018-01-13T19:00:57.432Z,13.03
2018-01-13T19:03:25.087Z,20.80
2018-01-13T19:05:52.757Z,24.70
2018-01-13T19:08:20.415Z,16.70
2018-01-13T19:10:48.080Z,20.63
2018-01-13T19:13:15.738Z,22.60
2018-01-13T19:15:43.408Z,23.63
2018-01-13T19:18:11.027Z,18.37
2018-01-13T19:20:38.606Z,36.87
2018-01-13T19:23:06.222Z,26.40
2018-01-13T19:25:33.807Z,20.60
2018-01-13T19:28:01.416Z,27.27
2018-01-13T19:30:29.071Z,24.53
2018-01-13T19:32:56.735Z,22.57
2018-01-13T19:35:24.408Z,22.57
2018-01-13T19:37:51.999Z,29.17
2018-01-13T19:40:19.606Z,22.30
2018-01-13T19:42:47.228Z,34.43
2018-01-13T19:45:14.951Z,31.23
2018-01-13T19:47:43.312Z,27.10
2018-01-13T19:50:10.996Z,24.60
2018-01-13T19:52:38.656Z,24.13
2018-01-13T19:55:06.276Z,24.60
2018-01-13T19:57:33.872Z,26.47
2018-01-13T20:00:01.544Z,23.03
2018-01-13T20:02:29.208Z,19.03
2018-01-13T20:04:56.815Z,25.40
2018-01-13T20:07:24.412Z,25.20
2018-01-13T20:09:52.086Z,19.17
2018-01-13T20:12:19.675Z,26.23
2018-01-13T20:14:48.135Z,20.20
2018-01-13T20:17:15.794Z,21.60
2018-01-13T20:19:43.456Z,24.07
2018-01-13T20:22:11.047Z,27.53
2018-01-13T20:24:39.501Z,24.23
2018-01-13T20:27:07.168Z,25.50
2018-01-13T20:29:34.826Z,31.43
2018-01-13T20:32:02.492Z,28.50
2018-01-13T20:34:30.146Z,18.47
2018-01-13T20:36:57.759Z,22.10
2018-01-13T20:39:25.471Z,18.17
2018-01-13T20:41:53.866Z,27.83
2018-01-13T20:44:21.447Z,30.73
2018-01-13T20:46:49.899Z,23.17
2018-01-13T20:49:17.560Z,32.13
2018-01-13T20:51:46.048Z,24.60
2018-01-13T20:54:13.707Z,17.33
2018-01-13T20:56:41.368Z,19.00
2018-01-13T20:59:08.951Z,16.20
2018-01-13T21:01:37.391Z,19.07
2018-01-13T21:04:05.070Z,20.10
2018-01-13T21:06:32.735Z,21.57
2018-01-13T21:09:00.329Z,26.47
2018-01-13T21:11:27.939Z,27.57
2018-01-13T21:13:55.619Z,22.13
2018-01-13T21:16:24.744Z,21.93
2018-01-13T21:18:53.104Z,21.47
2018-01-13T21:21:20.752Z,24.70
2018-01-13T21:23:48.334Z,24.67
2018-01-13T21:26:16.721Z,25.17
2018-01-13T21:28:45.091Z,18.60
2018-01-13T21:31:12.743Z,24.73
2018-01-13T21:33:40.413Z,23.93
2018-01-13T21:36:08.076Z,25.63
2018-01-13T21:38:35.730Z,22.63
2018-01-13T21:41:03.396Z,25.53
2018-01-13T21:43:31.018Z,22.17
2018-01-13T21:45:58.615Z,26.67
2018-01-13T21:48:26.285Z,27.90
2018-01-13T21:50:54.763Z,19.47
2018-01-13T21:53:23.253Z,16.67
2018-01-13T21:55:50.841Z,19.53
2018-01-13T21:58:18.455Z,25.90
2018-01-13T22:00:46.044Z,19.83
2018-01-13T22:03:14.577Z,21.00
2018-01-13T22:05:42.275Z,17.40
2018-01-13T22:08:09.891Z,19.53
2018-01-13T22:10:37.513Z,17.47
2018-01-13T22:13:05.980Z,19.03
2018-01-13T22:15:33.572Z,15.97
2018-01-13T22:18:01.208Z,19.87
2018-01-13T22:20:28.871Z,19.60
2018-01-13T22:22:56.459Z,18.97
2018-01-13T22:25:24.856Z,27.20
2018-01-13T22:27:52.475Z,25.33
2018-01-13T22:30:20.140Z,21.63
2018-01-13T22:32:47.795Z,21.23
2018-01-13T22:35:15.464Z,18.60
2018-01-13T22:37:43.128Z,18.07
2018-01-13T22:40:10.783Z,18.07
2018-01-13T22:42:38.369Z,21.00
2018-01-13T22:45:06.740Z,21.97
2018-01-13T22:47:35.212Z,19.00
2018-01-13T22:50:02.873Z,17.70
2018-01-13T22:52:30.468Z,22.23
2018-01-13T22:54:58.055Z,22.27
2018-01-13T22:57:25.671Z,28.23
2018-01-13T22:59:54.019Z,28.33
2018-01-13T23:02:21.699Z,27.07
2018-01-13T23:04:50.899Z,24.30
2018-01-13T23:07:18.513Z,18.90
2018-01-13T23:09:46.119Z,21.27
2018-01-13T23:12:13.784Z,23.63
2018-01-13T23:14:41.492Z,22.37
2018-01-13T23:17:09.108Z,22.83
2018-01-13T23:19:36.767Z,23.13
2018-01-13T23:22:04.437Z,24.57
2018-01-13T23:24:32.032Z,26.80
2018-01-13T23:26:59.655Z,25.97
2018-01-13T23:29:27.278Z,17.27
2018-01-13T23:31:55.002Z,24.90
2018-01-13T23:34:23.359Z,25.97
2018-01-13T23:36:51.021Z,21.50
2018-01-13T23:39:18.692Z,20.80
2018-01-13T23:41:46.351Z,24.60
2018-01-13T23:44:13.972Z,26.13
2018-01-13T23:46:41.555Z,18.97
2018-01-13T23:49:09.235Z,20.37
2018-01-13T23:51:37.632Z,22.77
2018-01-13T23:54:06.019Z,22.10
2018-01-13T23:56:34.377Z,27.93
2018-01-13T23:59:02.037Z,24.33
